createdAt,value
2019-02-19T00:11:53.774Z,7.30
2019-02-19T00:16:58.984Z,7.90
2019-02-19T00:22:15.885Z,7.17
2019-02-19T00:27:21.070Z,7.33
2019-02-19T00:32:26.257Z,8.17
2019-02-19T00:37:50.507Z,8.57
2019-02-19T00:43:07.315Z,10.07
2019-02-19T00:53:29.516Z,8.80
2019-02-19T00:58:53.809Z,8.70
2019-02-19T01:14:32.961Z,7.00
2019-02-19T01:19:38.258Z,7.47
2019-02-19T01:30:00.298Z,8.13
2019-02-19T01:35:24.516Z,8.00
2019-02-19T01:40:29.782Z,7.63
2019-02-19T01:45:34.969Z,8.23
2019-02-19T01:50:40.149Z,7.17
2019-02-19T01:55:57.386Z,7.07
2019-02-19T02:01:02.576Z,7.13
2019-02-19T02:06:08.218Z,7.37
2019-02-19T02:11:13.408Z,6.73
2019-02-19T02:21:54.401Z,6.80
2019-02-19T02:27:18.942Z,6.47
2019-02-19T02:32:24.135Z,6.10
2019-02-19T02:37:29.346Z,6.90
2019-02-19T02:42:34.522Z,6.17
2019-02-19T02:47:58.776Z,6.63
2019-02-19T02:53:15.935Z,7.37
2019-02-19T02:58:21.179Z,5.40
2019-02-19T03:09:17.425Z,5.33
2019-02-19T03:14:22.621Z,6.03
2019-02-19T03:19:46.862Z,4.80
2019-02-19T03:30:10.666Z,5.60
2019-02-19T03:35:15.876Z,5.53
2019-02-19T03:45:37.988Z,5.10
2019-02-19T03:50:43.530Z,4.63
2019-02-19T04:01:05.650Z,5.27
2019-02-19T04:06:11.116Z,4.83
2019-02-19T04:11:16.307Z,4.67
2019-02-19T04:16:40.617Z,5.00
2019-02-19T04:21:45.856Z,5.00
2019-02-19T04:26:51.054Z,5.30
2019-02-19T04:42:30.948Z,5.30
2019-02-19T04:53:25.160Z,5.17
2019-02-19T04:58:49.715Z,5.93
2019-02-19T05:03:55.558Z,5.60
2019-02-19T05:19:34.313Z,5.00
2019-02-19T05:24:39.632Z,4.97
2019-02-19T05:29:44.812Z,5.37
2019-02-19T05:35:01.682Z,6.00
2019-02-19T05:40:07.415Z,4.73
2019-02-19T05:45:12.597Z,5.43
2019-02-19T05:50:24.073Z,5.60
2019-02-19T06:00:46.507Z,6.27
2019-02-19T06:05:51.707Z,6.17
2019-02-19T06:16:25.739Z,6.47
2019-02-19T06:21:31.236Z,6.43
2019-02-19T06:26:55.583Z,6.53
2019-02-19T06:32:00.797Z,8.83
2019-02-19T06:37:06.043Z,7.93
2019-02-19T06:52:44.915Z,10.50
2019-02-19T06:57:50.468Z,16.57
2019-02-19T07:03:14.599Z,11.40
2019-02-19T07:08:19.938Z,9.97
2019-02-19T07:13:25.219Z,10.80
2019-02-19T07:18:30.457Z,20.33
2019-02-19T07:23:35.921Z,13.20
2019-02-19T07:33:58.404Z,12.13
2019-02-19T07:44:39.452Z,16.27
2019-02-19T07:50:03.644Z,25.20
2019-02-19T07:55:48.283Z,12.30
2019-02-19T08:06:24.123Z,10.43
2019-02-19T08:11:29.395Z,11.60
2019-02-19T08:22:10.438Z,13.17
2019-02-19T08:27:34.597Z,14.07
2019-02-19T08:32:58.785Z,12.80
2019-02-19T08:38:03.986Z,11.17
2019-02-19T08:43:09.181Z,11.80
2019-02-19T08:48:14.384Z,12.20
2019-02-19T08:53:30.774Z,12.87
2019-02-19T08:58:36.341Z,11.97
2019-02-19T09:03:41.541Z,12.33
2019-02-19T09:14:03.933Z,12.40
2019-02-19T09:19:09.228Z,12.83
2019-02-19T09:24:14.506Z,11.17
2019-02-19T09:29:19.690Z,11.63
2019-02-19T09:34:24.885Z,11.17
2019-02-19T09:39:30.118Z,10.93
2019-02-19T09:44:35.326Z,12.30
2019-02-19T09:49:52.454Z,11.20
2019-02-19T09:54:57.694Z,11.50
2019-02-19T10:00:21.961Z,11.73
2019-02-19T10:10:45.061Z,10.93
2019-02-19T10:16:02.266Z,11.07
2019-02-19T10:21:07.457Z,10.87
2019-02-19T10:26:12.761Z,10.30
2019-02-19T10:31:37.202Z,10.37
2019-02-19T10:36:42.496Z,10.83
2019-02-19T10:41:47.714Z,9.73
2019-02-19T10:52:23.051Z,9.70
2019-02-19T10:57:28.254Z,9.00
2019-02-19T11:02:33.460Z,7.60
2019-02-19T11:07:38.663Z,7.40
2019-02-19T11:12:43.856Z,6.53
2019-02-19T11:28:36.504Z,5.83
2019-02-19T11:33:42.003Z,5.87
2019-02-19T11:38:58.414Z,6.00
2019-02-19T11:44:03.654Z,6.43
2019-02-19T11:49:08.857Z,6.30
2019-02-19T11:59:50.426Z,6.20
2019-02-19T12:04:56.477Z,5.80
2019-02-19T12:10:13.766Z,6.23
2019-02-19T12:15:38.100Z,7.00
2019-02-19T12:21:02.356Z,5.93
2019-02-19T12:26:20.321Z,4.73
2019-02-19T12:31:25.566Z,5.20
2019-02-19T12:36:32.727Z,5.40
2019-02-19T12:41:38.006Z,4.37
2019-02-19T12:46:43.310Z,4.93
2019-02-19T12:51:48.745Z,4.63
2019-02-19T12:56:54.073Z,4.17
2019-02-19T13:01:59.349Z,5.97
2019-02-19T13:07:04.821Z,4.63
2019-02-19T13:12:10.641Z,4.63
2019-02-19T13:17:16.016Z,4.87
2019-02-19T13:22:21.385Z,5.40
2019-02-19T13:27:26.687Z,4.60
2019-02-19T13:32:32.203Z,5.33
2019-02-19T13:37:37.589Z,4.20
2019-02-19T13:42:42.893Z,6.97
2019-02-19T13:47:48.217Z,5.93
2019-02-19T13:53:12.567Z,4.53
2019-02-19T13:58:18.613Z,5.10
2019-02-19T14:03:42.866Z,4.70
2019-02-19T14:09:07.090Z,4.63
2019-02-19T14:14:36.488Z,4.97
2019-02-19T14:20:00.606Z,5.37
2019-02-19T14:25:27.572Z,4.43
2019-02-19T14:30:53.347Z,5.20
2019-02-19T14:36:36.594Z,5.40
2019-02-19T14:42:00.780Z,5.00
2019-02-19T14:47:16.480Z,4.37
2019-02-19T14:52:59.909Z,3.90
2019-02-19T14:58:24.042Z,4.10
2019-02-19T15:04:07.196Z,3.73
2019-02-19T15:09:31.371Z,3.97
2019-02-19T15:15:14.583Z,3.30
2019-02-19T15:20:44.603Z,3.33
2019-02-19T15:26:08.827Z,3.77
2019-02-19T15:31:43.548Z,3.53
2019-02-19T15:37:10.829Z,3.60
2019-02-19T15:43:13.782Z,3.93
2019-02-19T15:48:49.271Z,3.70
2019-02-19T15:54:33.165Z,3.57
2019-02-19T16:06:11.154Z,3.20
2019-02-19T16:17:45.123Z,2.83
2019-02-19T16:23:09.429Z,2.67
2019-02-19T16:34:31.438Z,3.10
2019-02-19T16:39:55.637Z,2.70
2019-02-19T16:45:08.855Z,3.63
2019-02-19T16:50:42.484Z,2.77
2019-02-19T16:56:06.796Z,4.80
2019-02-19T17:01:31.001Z,4.63
2019-02-19T17:12:41.412Z,3.33
2019-02-19T17:18:05.847Z,2.80
2019-02-19T17:23:43.751Z,3.07
2019-02-19T17:29:12.811Z,2.67
2019-02-19T17:34:37.132Z,4.43
2019-02-19T17:40:07.500Z,4.97
2019-02-19T17:45:31.806Z,7.70
2019-02-19T17:50:55.989Z,7.50
2019-02-19T17:56:29.257Z,4.97
2019-02-19T18:01:53.356Z,6.33
2019-02-19T18:07:17.449Z,4.53
2019-02-19T18:12:32.704Z,3.13
2019-02-19T18:18:04.445Z,5.07
2019-02-19T18:23:21.140Z,8.17
2019-02-19T18:33:42.857Z,9.80
2019-02-19T18:39:07.211Z,6.37
2019-02-19T18:44:31.560Z,11.67
2019-02-19T18:49:55.880Z,17.97
2019-02-19T18:55:01.142Z,14.67
2019-02-19T19:00:48.219Z,9.33
2019-02-19T19:11:48.477Z,18.43
2019-02-19T19:16:53.809Z,11.53
2019-02-19T19:22:18.145Z,11.07
2019-02-19T19:27:23.727Z,19.80
2019-02-19T19:32:28.993Z,15.73
2019-02-19T19:37:46.134Z,20.83
2019-02-19T19:43:02.557Z,16.53
2019-02-19T19:48:07.869Z,5.53
2019-02-19T19:53:13.061Z,13.60
2019-02-19T19:58:29.518Z,4.67
2019-02-19T20:03:34.808Z,7.57
2019-02-19T20:08:40.660Z,9.13
2019-02-19T20:13:57.451Z,7.90
2019-02-19T20:19:02.669Z,6.57
2019-02-19T20:29:44.142Z,7.97
2019-02-19T20:34:49.575Z,10.93
2019-02-19T20:39:54.806Z,20.90
2019-02-19T20:50:17.863Z,6.83
2019-02-19T20:55:42.680Z,8.23
2019-02-19T21:06:05.580Z,9.97
2019-02-19T21:11:35.693Z,10.27
2019-02-19T21:22:22.226Z,9.30
2019-02-19T21:27:27.532Z,9.00
2019-02-19T21:38:09.129Z,6.30
2019-02-19T21:43:15.207Z,7.20
2019-02-19T21:48:47.750Z,8.70
2019-02-19T21:54:09.341Z,8.27
2019-02-19T21:59:14.670Z,9.07
2019-02-19T22:04:19.939Z,6.37
2019-02-19T22:09:44.289Z,7.40
2019-02-19T22:14:49.553Z,6.83
2019-02-19T22:20:02.898Z,7.67
2019-02-19T22:25:20.862Z,6.63
2019-02-19T22:30:26.356Z,6.03
2019-02-19T22:35:31.984Z,6.87
2019-02-19T22:40:37.160Z,7.27
2019-02-19T22:45:42.359Z,6.40
2019-02-19T22:50:47.569Z,5.77
2019-02-19T22:56:11.695Z,6.50
2019-02-19T23:01:55.017Z,6.23
2019-02-19T23:18:32.369Z,7.37
2019-02-19T23:29:07.069Z,7.93
2019-02-19T23:39:54.689Z,5.80
2019-02-19T23:44:59.932Z,6.27
2019-02-19T23:50:24.431Z,7.23
2019-02-19T23:55:29.798Z,9.13
